sensor_id;sensor_type;location;lat;lon;timestamp;temperature;humidity
59572;DHT22;59406;45.602;11.904;2023-02-12T00:00:40;1.40;78.20
59572;DHT22;59406;45.602;11.904;2023-02-12T00:03:06;1.60;77.90
59572;DHT22;59406;45.602;11.904;2023-02-12T00:05:32;1.30;77.30
59572;DHT22;59406;45.602;11.904;2023-02-12T00:07:58;1.50;76.30
59572;DHT22;59406;45.602;11.904;2023-02-12T00:10:25;1.50;77.90
59572;DHT22;59406;45.602;11.904;2023-02-12T00:12:53;1.40;78.50
59572;DHT22;59406;45.602;11.904;2023-02-12T00:15:19;1.40;78.70
59572;DHT22;59406;45.602;11.904;2023-02-12T00:17:45;1.30;78.70
59572;DHT22;59406;45.602;11.904;2023-02-12T00:20:11;1.20;79.00
59572;DHT22;59406;45.602;11.904;2023-02-12T00:22:37;1.20;80.10
59572;DHT22;59406;45.602;11.904;2023-02-12T00:25:03;1.40;79.10
59572;DHT22;59406;45.602;11.904;2023-02-12T00:27:33;1.30;79.30
59572;DHT22;59406;45.602;11.904;2023-02-12T00:30:00;1.30;79.50
59572;DHT22;59406;45.602;11.904;2023-02-12T00:32:26;1.30;79.40
59572;DHT22;59406;45.602;11.904;2023-02-12T00:34:52;1.20;79.80
59572;DHT22;59406;45.602;11.904;2023-02-12T00:37:18;1.20;79.20
59572;DHT22;59406;45.602;11.904;2023-02-12T00:39:44;1.10;79.40
59572;DHT22;59406;45.602;11.904;2023-02-12T00:42:10;1.30;78.80
59572;DHT22;59406;45.602;11.904;2023-02-12T00:44:36;1.30;78.40
59572;DHT22;59406;45.602;11.904;2023-02-12T00:47:02;1.20;78.10
59572;DHT22;59406;45.602;11.904;2023-02-12T00:49:30;1.30;78.30
59572;DHT22;59406;45.602;11.904;2023-02-12T00:52:00;1.30;77.00
59572;DHT22;59406;45.602;11.904;2023-02-12T00:54:27;1.40;77.20
59572;DHT22;59406;45.602;11.904;2023-02-12T00:56:53;1.30;78.40
59572;DHT22;59406;45.602;11.904;2023-02-12T00:59:21;1.10;79.40
59572;DHT22;59406;45.602;11.904;2023-02-12T01:01:47;1.00;79.90
59572;DHT22;59406;45.602;11.904;2023-02-12T01:04:14;1.10;79.50
59572;DHT22;59406;45.602;11.904;2023-02-12T01:06:40;0.90;79.90
59572;DHT22;59406;45.602;11.904;2023-02-12T01:09:06;1.00;79.90
59572;DHT22;59406;45.602;11.904;2023-02-12T01:11:32;1.10;78.40
59572;DHT22;59406;45.602;11.904;2023-02-12T01:13:58;1.10;78.50
59572;DHT22;59406;45.602;11.904;2023-02-12T01:16:25;1.10;78.40
59572;DHT22;59406;45.602;11.904;2023-02-12T01:18:52;1.10;77.60
59572;DHT22;59406;45.602;11.904;2023-02-12T01:21:21;1.10;78.90
59572;DHT22;59406;45.602;11.904;2023-02-12T01:23:48;1.10;79.40
59572;DHT22;59406;45.602;11.904;2023-02-12T01:26:16;0.90;79.40
59572;DHT22;59406;45.602;11.904;2023-02-12T01:28:44;1.00;79.30
59572;DHT22;59406;45.602;11.904;2023-02-12T01:31:16;0.80;79.60
59572;DHT22;59406;45.602;11.904;2023-02-12T01:33:43;0.80;79.20
59572;DHT22;59406;45.602;11.904;2023-02-12T01:36:10;0.60;79.80
59572;DHT22;59406;45.602;11.904;2023-02-12T01:38:36;0.90;78.70
59572;DHT22;59406;45.602;11.904;2023-02-12T01:41:14;0.70;79.20
59572;DHT22;59406;45.602;11.904;2023-02-12T01:43:40;0.70;79.40
59572;DHT22;59406;45.602;11.904;2023-02-12T01:46:08;0.60;79.70
59572;DHT22;59406;45.602;11.904;2023-02-12T01:48:41;0.70;80.40
59572;DHT22;59406;45.602;11.904;2023-02-12T01:51:11;0.70;80.20
59572;DHT22;59406;45.602;11.904;2023-02-12T01:53:46;0.80;80.20
59572;DHT22;59406;45.602;11.904;2023-02-12T01:56:13;0.80;80.10
59572;DHT22;59406;45.602;11.904;2023-02-12T01:58:42;0.60;80.10
59572;DHT22;59406;45.602;11.904;2023-02-12T02:01:14;0.70;80.80
59572;DHT22;59406;45.602;11.904;2023-02-12T02:03:44;0.60;80.60
59572;DHT22;59406;45.602;11.904;2023-02-12T02:06:18;0.80;80.00
59572;DHT22;59406;45.602;11.904;2023-02-12T02:08:45;0.60;79.70
59572;DHT22;59406;45.602;11.904;2023-02-12T02:11:11;0.70;79.60
59572;DHT22;59406;45.602;11.904;2023-02-12T02:13:55;0.60;79.50
59572;DHT22;59406;45.602;11.904;2023-02-12T02:16:46;0.60;80.00
59572;DHT22;59406;45.602;11.904;2023-02-12T02:19:47;0.70;80.60
59572;DHT22;59406;45.602;11.904;2023-02-12T02:25:30;0.20;80.60
59572;DHT22;59406;45.602;11.904;2023-02-12T02:30:57;0.30;80.00
59572;DHT22;59406;45.602;11.904;2023-02-12T02:36:14;0.50;80.40
59572;DHT22;59406;45.602;11.904;2023-02-12T02:38:59;0.70;80.30
59572;DHT22;59406;45.602;11.904;2023-02-12T02:43:55;0.40;79.90
59572;DHT22;59406;45.602;11.904;2023-02-12T02:48:59;0.40;78.90
59572;DHT22;59406;45.602;11.904;2023-02-12T02:51:33;0.60;80.20
59572;DHT22;59406;45.602;11.904;2023-02-12T02:54:02;0.40;79.90
59572;DHT22;59406;45.602;11.904;2023-02-12T02:56:32;0.50;79.70
59572;DHT22;59406;45.602;11.904;2023-02-12T02:59:03;0.30;80.30
59572;DHT22;59406;45.602;11.904;2023-02-12T03:01:43;0.20;80.90
59572;DHT22;59406;45.602;11.904;2023-02-12T03:04:24;0.30;80.30
59572;DHT22;59406;45.602;11.904;2023-02-12T03:07:16;0.10;80.70
59572;DHT22;59406;45.602;11.904;2023-02-12T03:09:52;0.30;80.80
59572;DHT22;59406;45.602;11.904;2023-02-12T03:12:30;0.20;82.10
59572;DHT22;59406;45.602;11.904;2023-02-12T03:15:13;0.10;82.10
59572;DHT22;59406;45.602;11.904;2023-02-12T03:17:44;0.10;81.80
59572;DHT22;59406;45.602;11.904;2023-02-12T03:20:24;0.10;81.40
59572;DHT22;59406;45.602;11.904;2023-02-12T03:22:57;0.10;80.80
59572;DHT22;59406;45.602;11.904;2023-02-12T03:25:37;0.10;80.80
59572;DHT22;59406;45.602;11.904;2023-02-12T03:28:30;0.10;80.90
59572;DHT22;59406;45.602;11.904;2023-02-12T03:34:04;0.10;81.00
59572;DHT22;59406;45.602;11.904;2023-02-12T03:36:37;0.10;80.90
59572;DHT22;59406;45.602;11.904;2023-02-12T03:39:12;0.20;80.80
59572;DHT22;59406;45.602;11.904;2023-02-12T03:41:43;0.10;80.30
59572;DHT22;59406;45.602;11.904;2023-02-12T03:44:22;0.00;80.80
59572;DHT22;59406;45.602;11.904;2023-02-12T03:47:20;0.10;81.60
59572;DHT22;59406;45.602;11.904;2023-02-12T03:52:25;0.10;81.00
59572;DHT22;59406;45.602;11.904;2023-02-12T03:54:51;0.00;79.60
59572;DHT22;59406;45.602;11.904;2023-02-12T03:57:20;0.10;80.60
59572;DHT22;59406;45.602;11.904;2023-02-12T03:59:47;0.10;81.30
59572;DHT22;59406;45.602;11.904;2023-02-12T04:02:15;0.00;81.40
59572;DHT22;59406;45.602;11.904;2023-02-12T04:04:43;0.00;81.10
59572;DHT22;59406;45.602;11.904;2023-02-12T04:07:10;0.00;80.60
59572;DHT22;59406;45.602;11.904;2023-02-12T04:09:36;0.00;80.80
59572;DHT22;59406;45.602;11.904;2023-02-12T04:15:47;-3276.70;81.40
59572;DHT22;59406;45.602;11.904;2023-02-12T04:18:19;0.00;79.60
59572;DHT22;59406;45.602;11.904;2023-02-12T04:26:36;-3276.70;81.40
59572;DHT22;59406;45.602;11.904;2023-02-12T04:29:16;-3276.50;81.10
59572;DHT22;59406;45.602;11.904;2023-02-12T04:40:07;-3276.70;81.30
59572;DHT22;59406;45.602;11.904;2023-02-12T04:42:44;-3276.70;81.50
59572;DHT22;59406;45.602;11.904;2023-02-12T04:45:12;-3276.60;81.10
59572;DHT22;59406;45.602;11.904;2023-02-12T04:47:38;-3276.70;81.50
59572;DHT22;59406;45.602;11.904;2023-02-12T04:50:05;-3276.70;81.40
59572;DHT22;59406;45.602;11.904;2023-02-12T04:52:31;0.00;81.10
59572;DHT22;59406;45.602;11.904;2023-02-12T04:54:57;-3276.60;80.90
59572;DHT22;59406;45.602;11.904;2023-02-12T04:57:23;-3276.70;81.20
59572;DHT22;59406;45.602;11.904;2023-02-12T04:59:48;-3276.50;81.40
59572;DHT22;59406;45.602;11.904;2023-02-12T05:02:14;-3276.70;81.30
59572;DHT22;59406;45.602;11.904;2023-02-12T05:04:40;-3276.70;80.80
59572;DHT22;59406;45.602;11.904;2023-02-12T05:07:06;0.00;80.60
59572;DHT22;59406;45.602;11.904;2023-02-12T05:09:32;0.00;81.10
59572;DHT22;59406;45.602;11.904;2023-02-12T05:11:58;-3276.70;80.00
59572;DHT22;59406;45.602;11.904;2023-02-12T05:14:24;-3276.70;81.40
59572;DHT22;59406;45.602;11.904;2023-02-12T05:16:50;-3276.70;80.90
59572;DHT22;59406;45.602;11.904;2023-02-12T05:21:48;-3276.40;81.10
59572;DHT22;59406;45.602;11.904;2023-02-12T05:24:14;-3276.40;81.90
59572;DHT22;59406;45.602;11.904;2023-02-12T05:26:40;-3276.20;81.70
59572;DHT22;59406;45.602;11.904;2023-02-12T05:29:06;-3276.40;81.40
59572;DHT22;59406;45.602;11.904;2023-02-12T05:31:32;-3276.30;81.60
59572;DHT22;59406;45.602;11.904;2023-02-12T05:33:58;-3276.20;81.80
59572;DHT22;59406;45.602;11.904;2023-02-12T05:36:24;-3276.30;81.70
59572;DHT22;59406;45.602;11.904;2023-02-12T05:38:51;-3276.40;82.20
59572;DHT22;59406;45.602;11.904;2023-02-12T05:41:20;-3276.20;81.70
59572;DHT22;59406;45.602;11.904;2023-02-12T05:43:47;-3276.20;81.80
59572;DHT22;59406;45.602;11.904;2023-02-12T05:46:14;-3276.10;81.80
59572;DHT22;59406;45.602;11.904;2023-02-12T05:48:40;-3276.30;81.20
59572;DHT22;59406;45.602;11.904;2023-02-12T05:51:12;-3276.20;81.50
59572;DHT22;59406;45.602;11.904;2023-02-12T05:53:39;-3276.40;81.60
59572;DHT22;59406;45.602;11.904;2023-02-12T05:58:33;-3276.10;81.70
59572;DHT22;59406;45.602;11.904;2023-02-12T06:00:58;-3276.10;81.60
59572;DHT22;59406;45.602;11.904;2023-02-12T06:03:24;-3276.10;82.00
59572;DHT22;59406;45.602;11.904;2023-02-12T06:05:50;-3276.00;81.90
59572;DHT22;59406;45.602;11.904;2023-02-12T06:08:16;-3276.10;82.60
59572;DHT22;59406;45.602;11.904;2023-02-12T06:10:42;-3276.00;82.70
59572;DHT22;59406;45.602;11.904;2023-02-12T06:13:08;-3276.20;82.70
59572;DHT22;59406;45.602;11.904;2023-02-12T06:15:37;-3276.20;82.50
59572;DHT22;59406;45.602;11.904;2023-02-12T06:18:03;-3275.90;82.60
59572;DHT22;59406;45.602;11.904;2023-02-12T06:20:29;-3276.10;82.80
59572;DHT22;59406;45.602;11.904;2023-02-12T06:22:54;-3276.20;82.30
59572;DHT22;59406;45.602;11.904;2023-02-12T06:25:21;-3276.00;82.30
59572;DHT22;59406;45.602;11.904;2023-02-12T06:27:47;-3276.30;82.70
59572;DHT22;59406;45.602;11.904;2023-02-12T06:30:13;-3276.20;82.40
59572;DHT22;59406;45.602;11.904;2023-02-12T06:32:39;-3276.40;81.90
59572;DHT22;59406;45.602;11.904;2023-02-12T06:35:05;-3276.50;82.10
59572;DHT22;59406;45.602;11.904;2023-02-12T06:37:31;-3276.40;82.20
59572;DHT22;59406;45.602;11.904;2023-02-12T06:39:57;-3276.50;82.00
59572;DHT22;59406;45.602;11.904;2023-02-12T06:42:23;-3276.60;81.90
59572;DHT22;59406;45.602;11.904;2023-02-12T06:44:49;0.00;81.90
59572;DHT22;59406;45.602;11.904;2023-02-12T06:47:15;0.00;82.20
59572;DHT22;59406;45.602;11.904;2023-02-12T06:49:41;0.00;82.30
59572;DHT22;59406;45.602;11.904;2023-02-12T06:52:07;0.00;82.50
59572;DHT22;59406;45.602;11.904;2023-02-12T06:54:33;0.10;82.40
59572;DHT22;59406;45.602;11.904;2023-02-12T06:56:58;0.40;82.20
59572;DHT22;59406;45.602;11.904;2023-02-12T06:59:24;0.60;80.90
59572;DHT22;59406;45.602;11.904;2023-02-12T07:01:50;0.60;81.80
59572;DHT22;59406;45.602;11.904;2023-02-12T07:04:16;0.70;81.90
59572;DHT22;59406;45.602;11.904;2023-02-12T07:06:42;1.00;81.50
59572;DHT22;59406;45.602;11.904;2023-02-12T07:09:08;1.30;81.20
59572;DHT22;59406;45.602;11.904;2023-02-12T07:11:35;1.70;80.80
59572;DHT22;59406;45.602;11.904;2023-02-12T07:14:01;2.00;80.10
59572;DHT22;59406;45.602;11.904;2023-02-12T07:16:27;2.30;79.50
59572;DHT22;59406;45.602;11.904;2023-02-12T07:18:53;2.40;79.40
59572;DHT22;59406;45.602;11.904;2023-02-12T07:21:19;2.90;79.20
59572;DHT22;59406;45.602;11.904;2023-02-12T07:23:47;2.90;78.70
59572;DHT22;59406;45.602;11.904;2023-02-12T07:26:14;3.10;79.00
59572;DHT22;59406;45.602;11.904;2023-02-12T07:28:43;3.20;79.00
59572;DHT22;59406;45.602;11.904;2023-02-12T07:31:15;3.00;78.90
59572;DHT22;59406;45.602;11.904;2023-02-12T07:33:41;3.20;79.10
59572;DHT22;59406;45.602;11.904;2023-02-12T07:36:13;3.40;79.00
59572;DHT22;59406;45.602;11.904;2023-02-12T07:38:40;4.00;78.60
59572;DHT22;59406;45.602;11.904;2023-02-12T07:43:40;3.80;78.90
59572;DHT22;59406;45.602;11.904;2023-02-12T07:46:11;3.90;78.70
59572;DHT22;59406;45.602;11.904;2023-02-12T07:48:37;3.90;78.60
59572;DHT22;59406;45.602;11.904;2023-02-12T07:51:05;4.10;78.20
59572;DHT22;59406;45.602;11.904;2023-02-12T07:53:31;4.40;78.00
59572;DHT22;59406;45.602;11.904;2023-02-12T07:56:24;4.80;77.50
59572;DHT22;59406;45.602;11.904;2023-02-12T07:58:55;5.30;77.30
59572;DHT22;59406;45.602;11.904;2023-02-12T08:01:30;5.30;76.50
59572;DHT22;59406;45.602;11.904;2023-02-12T08:04:10;5.70;76.60
59572;DHT22;59406;45.602;11.904;2023-02-12T08:06:40;5.80;76.30
59572;DHT22;59406;45.602;11.904;2023-02-12T08:09:09;5.80;76.00
59572;DHT22;59406;45.602;11.904;2023-02-12T08:11:36;5.80;76.10
59572;DHT22;59406;45.602;11.904;2023-02-12T08:14:02;5.50;76.10
59572;DHT22;59406;45.602;11.904;2023-02-12T08:16:35;5.70;76.80
59572;DHT22;59406;45.602;11.904;2023-02-12T08:19:01;5.50;77.20
59572;DHT22;59406;45.602;11.904;2023-02-12T08:21:28;5.80;77.00
59572;DHT22;59406;45.602;11.904;2023-02-12T08:23:55;5.90;76.30
59572;DHT22;59406;45.602;11.904;2023-02-12T08:26:22;6.30;76.20
59572;DHT22;59406;45.602;11.904;2023-02-12T08:28:51;6.40;75.50
59572;DHT22;59406;45.602;11.904;2023-02-12T08:31:20;6.60;74.90
59572;DHT22;59406;45.602;11.904;2023-02-12T08:33:48;7.10;74.70
59572;DHT22;59406;45.602;11.904;2023-02-12T08:36:17;7.60;74.70
59572;DHT22;59406;45.602;11.904;2023-02-12T08:38:45;8.00;73.40
59572;DHT22;59406;45.602;11.904;2023-02-12T08:41:13;8.50;73.50
59572;DHT22;59406;45.602;11.904;2023-02-12T08:43:41;9.00;73.10
59572;DHT22;59406;45.602;11.904;2023-02-12T08:46:09;9.40;72.70
59572;DHT22;59406;45.602;11.904;2023-02-12T08:48:35;9.70;71.80
59572;DHT22;59406;45.602;11.904;2023-02-12T08:53:30;10.80;71.10
59572;DHT22;59406;45.602;11.904;2023-02-12T08:55:56;11.50;70.70
59572;DHT22;59406;45.602;11.904;2023-02-12T08:58:22;11.90;69.70
59572;DHT22;59406;45.602;11.904;2023-02-12T09:00:48;12.30;69.80
59572;DHT22;59406;45.602;11.904;2023-02-12T09:03:14;12.20;69.00
59572;DHT22;59406;45.602;11.904;2023-02-12T09:05:40;12.60;69.10
59572;DHT22;59406;45.602;11.904;2023-02-12T09:08:07;13.40;68.00
59572;DHT22;59406;45.602;11.904;2023-02-12T09:10:37;13.60;67.20
59572;DHT22;59406;45.602;11.904;2023-02-12T09:13:03;14.10;67.50
59572;DHT22;59406;45.602;11.904;2023-02-12T09:15:34;14.30;66.10
59572;DHT22;59406;45.602;11.904;2023-02-12T09:18:00;14.80;66.30
59572;DHT22;59406;45.602;11.904;2023-02-12T09:20:29;15.20;66.00
59572;DHT22;59406;45.602;11.904;2023-02-12T09:22:56;15.70;64.60
59572;DHT22;59406;45.602;11.904;2023-02-12T09:25:22;16.20;63.50
59572;DHT22;59406;45.602;11.904;2023-02-12T09:27:48;16.20;55.70
59572;DHT22;59406;45.602;11.904;2023-02-12T09:30:14;16.10;56.40
59572;DHT22;59406;45.602;11.904;2023-02-12T09:32:40;16.50;55.60
59572;DHT22;59406;45.602;11.904;2023-02-12T09:35:06;16.80;63.20
59572;DHT22;59406;45.602;11.904;2023-02-12T09:37:32;17.30;55.30
59572;DHT22;59406;45.602;11.904;2023-02-12T09:39:58;17.80;53.10
59572;DHT22;59406;45.602;11.904;2023-02-12T09:45:12;18.40;49.30
59572;DHT22;59406;45.602;11.904;2023-02-12T09:47:59;18.90;46.50
59572;DHT22;59406;45.602;11.904;2023-02-12T09:50:51;19.10;45.20
59572;DHT22;59406;45.602;11.904;2023-02-12T09:53:22;19.00;45.40
59572;DHT22;59406;45.602;11.904;2023-02-12T09:55:49;18.80;47.70
59572;DHT22;59406;45.602;11.904;2023-02-12T09:58:30;19.30;48.00
59572;DHT22;59406;45.602;11.904;2023-02-12T10:00:58;19.30;44.80
59572;DHT22;59406;45.602;11.904;2023-02-12T10:03:25;19.40;41.70
59572;DHT22;59406;45.602;11.904;2023-02-12T10:06:02;19.30;46.30
59572;DHT22;59406;45.602;11.904;2023-02-12T10:09:12;19.50;43.30
59572;DHT22;59406;45.602;11.904;2023-02-12T10:14:43;19.70;43.30
59572;DHT22;59406;45.602;11.904;2023-02-12T10:17:38;19.80;39.00
59572;DHT22;59406;45.602;11.904;2023-02-12T10:25:55;19.20;44.30
59572;DHT22;59406;45.602;11.904;2023-02-12T10:28:30;19.70;39.00
59572;DHT22;59406;45.602;11.904;2023-02-12T10:36:02;19.70;41.40
59572;DHT22;59406;45.602;11.904;2023-02-12T10:38:34;19.20;41.90
59572;DHT22;59406;45.602;11.904;2023-02-12T10:41:02;19.70;41.50
59572;DHT22;59406;45.602;11.904;2023-02-12T10:43:29;19.60;41.10
59572;DHT22;59406;45.602;11.904;2023-02-12T10:45:55;19.30;43.10
59572;DHT22;59406;45.602;11.904;2023-02-12T10:48:32;19.80;42.20
59572;DHT22;59406;45.602;11.904;2023-02-12T10:56:23;18.60;42.20
59572;DHT22;59406;45.602;11.904;2023-02-12T10:58:51;18.70;39.90
59572;DHT22;59406;45.602;11.904;2023-02-12T11:01:33;18.10;42.40
59572;DHT22;59406;45.602;11.904;2023-02-12T11:04:31;17.80;42.00
59572;DHT22;59406;45.602;11.904;2023-02-12T11:07:06;18.50;41.00
59572;DHT22;59406;45.602;11.904;2023-02-12T11:09:38;19.00;38.40
59572;DHT22;59406;45.602;11.904;2023-02-12T11:15:00;18.20;38.10
59572;DHT22;59406;45.602;11.904;2023-02-12T11:17:39;18.40;40.00
59572;DHT22;59406;45.602;11.904;2023-02-12T11:22:58;19.20;39.70
59572;DHT22;59406;45.602;11.904;2023-02-12T11:25:27;19.50;36.80
59572;DHT22;59406;45.602;11.904;2023-02-12T11:28:14;19.40;37.70
59572;DHT22;59406;45.602;11.904;2023-02-12T11:33:38;20.20;35.90
59572;DHT22;59406;45.602;11.904;2023-02-12T11:36:43;20.30;36.00
59572;DHT22;59406;45.602;11.904;2023-02-12T11:39:28;20.30;35.80
59572;DHT22;59406;45.602;11.904;2023-02-12T11:42:05;20.80;36.40
59572;DHT22;59406;45.602;11.904;2023-02-12T11:44:42;21.10;33.60
59572;DHT22;59406;45.602;11.904;2023-02-12T11:47:15;21.60;33.90
59572;DHT22;59406;45.602;11.904;2023-02-12T11:50:01;20.90;34.40
59572;DHT22;59406;45.602;11.904;2023-02-12T11:52:31;21.30;32.60
59572;DHT22;59406;45.602;11.904;2023-02-12T11:55:06;21.20;34.10
59572;DHT22;59406;45.602;11.904;2023-02-12T11:57:44;21.40;31.10
59572;DHT22;59406;45.602;11.904;2023-02-12T12:00:32;21.30;33.10
59572;DHT22;59406;45.602;11.904;2023-02-12T12:03:18;21.50;33.40
59572;DHT22;59406;45.602;11.904;2023-02-12T12:05:51;22.00;33.40
59572;DHT22;59406;45.602;11.904;2023-02-12T12:08:28;22.00;32.70
59572;DHT22;59406;45.602;11.904;2023-02-12T12:11:05;22.30;31.50
59572;DHT22;59406;45.602;11.904;2023-02-12T12:13:41;22.40;31.40
59572;DHT22;59406;45.602;11.904;2023-02-12T12:16:15;22.30;31.10
59572;DHT22;59406;45.602;11.904;2023-02-12T12:19:09;21.10;34.10
59572;DHT22;59406;45.602;11.904;2023-02-12T12:22:03;20.60;33.90
59572;DHT22;59406;45.602;11.904;2023-02-12T12:27:21;20.80;34.20
59572;DHT22;59406;45.602;11.904;2023-02-12T12:30:21;21.20;32.00
59572;DHT22;59406;45.602;11.904;2023-02-12T12:32:51;21.70;31.70
59572;DHT22;59406;45.602;11.904;2023-02-12T12:35:24;22.00;31.40
59572;DHT22;59406;45.602;11.904;2023-02-12T12:40:52;22.60;30.80
59572;DHT22;59406;45.602;11.904;2023-02-12T12:43:23;23.00;30.60
59572;DHT22;59406;45.602;11.904;2023-02-12T12:57:05;21.90;28.50
59572;DHT22;59406;45.602;11.904;2023-02-12T13:03:04;23.20;25.20
59572;DHT22;59406;45.602;11.904;2023-02-12T13:08:07;23.50;28.50
59572;DHT22;59406;45.602;11.904;2023-02-12T13:13:25;23.10;25.10
59572;DHT22;59406;45.602;11.904;2023-02-12T13:19:27;22.50;24.50
59572;DHT22;59406;45.602;11.904;2023-02-12T13:26:53;22.00;28.70
59572;DHT22;59406;45.602;11.904;2023-02-12T13:31:59;21.60;28.90
59572;DHT22;59406;45.602;11.904;2023-02-12T13:34:28;22.30;28.80
59572;DHT22;59406;45.602;11.904;2023-02-12T13:36:59;23.60;28.00
59572;DHT22;59406;45.602;11.904;2023-02-12T13:39:36;23.80;27.40
59572;DHT22;59406;45.602;11.904;2023-02-12T13:47:41;21.60;30.80
59572;DHT22;59406;45.602;11.904;2023-02-12T13:50:41;21.80;31.20
59572;DHT22;59406;45.602;11.904;2023-02-12T13:56:06;20.90;31.40
59572;DHT22;59406;45.602;11.904;2023-02-12T14:01:05;21.60;30.70
59572;DHT22;59406;45.602;11.904;2023-02-12T14:03:33;21.60;30.20
59572;DHT22;59406;45.602;11.904;2023-02-12T14:06:16;22.00;30.70
59572;DHT22;59406;45.602;11.904;2023-02-12T14:09:07;21.60;31.30
59572;DHT22;59406;45.602;11.904;2023-02-12T14:11:49;21.60;32.20
59572;DHT22;59406;45.602;11.904;2023-02-12T14:14:46;21.80;32.20
59572;DHT22;59406;45.602;11.904;2023-02-12T14:25:30;21.50;32.50
59572;DHT22;59406;45.602;11.904;2023-02-12T14:28:19;21.30;33.50
59572;DHT22;59406;45.602;11.904;2023-02-12T14:33:45;20.70;34.70
59572;DHT22;59406;45.602;11.904;2023-02-12T14:41:23;20.80;35.80
59572;DHT22;59406;45.602;11.904;2023-02-12T14:57:11;22.50;32.70
59572;DHT22;59406;45.602;11.904;2023-02-12T14:59:40;22.90;32.40
59572;DHT22;59406;45.602;11.904;2023-02-12T15:02:19;22.90;31.70
59572;DHT22;59406;45.602;11.904;2023-02-12T15:04:48;22.20;32.40
59572;DHT22;59406;45.602;11.904;2023-02-12T15:07:23;21.70;33.70
59572;DHT22;59406;45.602;11.904;2023-02-12T15:09:59;20.10;38.20
59572;DHT22;59406;45.602;11.904;2023-02-12T15:12:45;19.20;39.60
59572;DHT22;59406;45.602;11.904;2023-02-12T15:17:52;18.00;44.10
59572;DHT22;59406;45.602;11.904;2023-02-12T15:20:22;17.50;44.20
59572;DHT22;59406;45.602;11.904;2023-02-12T15:22:49;17.00;45.50
59572;DHT22;59406;45.602;11.904;2023-02-12T15:27:43;16.60;46.30
59572;DHT22;59406;45.602;11.904;2023-02-12T15:30:33;16.50;46.60
59572;DHT22;59406;45.602;11.904;2023-02-12T15:33:05;16.20;48.10
59572;DHT22;59406;45.602;11.904;2023-02-12T15:35:33;16.00;48.30
59572;DHT22;59406;45.602;11.904;2023-02-12T15:38:00;15.90;48.60
59572;DHT22;59406;45.602;11.904;2023-02-12T15:40:29;15.70;49.50
59572;DHT22;59406;45.602;11.904;2023-02-12T15:43:01;15.60;49.40
59572;DHT22;59406;45.602;11.904;2023-02-12T15:45:32;15.70;50.40
59572;DHT22;59406;45.602;11.904;2023-02-12T15:48:29;15.70;49.40
59572;DHT22;59406;45.602;11.904;2023-02-12T15:53:29;15.80;50.40
59572;DHT22;59406;45.602;11.904;2023-02-12T15:55:57;15.60;49.90
59572;DHT22;59406;45.602;11.904;2023-02-12T15:58:41;15.60;49.90
59572;DHT22;59406;45.602;11.904;2023-02-12T16:01:12;15.30;51.80
59572;DHT22;59406;45.602;11.904;2023-02-12T16:03:39;15.30;51.40
59572;DHT22;59406;45.602;11.904;2023-02-12T16:06:12;15.30;52.00
59572;DHT22;59406;45.602;11.904;2023-02-12T16:08:42;15.10;52.30
59572;DHT22;59406;45.602;11.904;2023-02-12T16:11:10;15.00;62.60
59572;DHT22;59406;45.602;11.904;2023-02-12T16:13:48;14.90;62.60
59572;DHT22;59406;45.602;11.904;2023-02-12T16:16:22;14.80;62.60
59572;DHT22;59406;45.602;11.904;2023-02-12T16:19:05;14.70;62.70
59572;DHT22;59406;45.602;11.904;2023-02-12T16:21:33;14.60;62.80
59572;DHT22;59406;45.602;11.904;2023-02-12T16:24:00;14.60;62.60
59572;DHT22;59406;45.602;11.904;2023-02-12T16:26:26;14.60;62.70
59572;DHT22;59406;45.602;11.904;2023-02-12T16:28:56;14.40;63.00
59572;DHT22;59406;45.602;11.904;2023-02-12T16:31:25;14.20;63.10
59572;DHT22;59406;45.602;11.904;2023-02-12T16:33:53;14.00;63.10
59572;DHT22;59406;45.602;11.904;2023-02-12T16:39:00;13.60;63.50
59572;DHT22;59406;45.602;11.904;2023-02-12T16:41:29;13.50;63.70
59572;DHT22;59406;45.602;11.904;2023-02-12T16:46:25;13.10;63.80
59572;DHT22;59406;45.602;11.904;2023-02-12T16:48:52;12.80;64.10
59572;DHT22;59406;45.602;11.904;2023-02-12T16:51:26;12.70;64.20
59572;DHT22;59406;45.602;11.904;2023-02-12T16:53:54;12.50;66.00
59572;DHT22;59406;45.602;11.904;2023-02-12T16:56:24;12.40;65.70
59572;DHT22;59406;45.602;11.904;2023-02-12T16:58:56;12.10;65.90
59572;DHT22;59406;45.602;11.904;2023-02-12T17:01:33;12.00;66.20
59572;DHT22;59406;45.602;11.904;2023-02-12T17:04:01;11.70;66.20
59572;DHT22;59406;45.602;11.904;2023-02-12T17:06:29;11.60;66.00
59572;DHT22;59406;45.602;11.904;2023-02-12T17:08:56;11.50;66.60
59572;DHT22;59406;45.602;11.904;2023-02-12T17:11:24;11.30;66.50
59572;DHT22;59406;45.602;11.904;2023-02-12T17:13:52;11.20;66.50
59572;DHT22;59406;45.602;11.904;2023-02-12T17:16:18;11.10;66.70
59572;DHT22;59406;45.602;11.904;2023-02-12T17:18:44;11.00;67.10
59572;DHT22;59406;45.602;11.904;2023-02-12T17:21:32;10.90;67.30
59572;DHT22;59406;45.602;11.904;2023-02-12T17:24:21;10.70;68.10
59572;DHT22;59406;45.602;11.904;2023-02-12T17:26:51;10.60;68.10
59572;DHT22;59406;45.602;11.904;2023-02-12T17:29:19;10.50;67.70
59572;DHT22;59406;45.602;11.904;2023-02-12T17:31:45;10.40;67.60
59572;DHT22;59406;45.602;11.904;2023-02-12T17:34:13;10.30;67.90
59572;DHT22;59406;45.602;11.904;2023-02-12T17:36:39;10.00;68.00
59572;DHT22;59406;45.602;11.904;2023-02-12T17:39:07;10.00;68.10
59572;DHT22;59406;45.602;11.904;2023-02-12T17:41:33;9.90;68.30
59572;DHT22;59406;45.602;11.904;2023-02-12T17:43:59;9.70;68.70
59572;DHT22;59406;45.602;11.904;2023-02-12T17:46:27;9.60;68.70
59572;DHT22;59406;45.602;11.904;2023-02-12T17:48:53;9.60;68.80
59572;DHT22;59406;45.602;11.904;2023-02-12T17:51:19;9.50;68.70
59572;DHT22;59406;45.602;11.904;2023-02-12T17:53:45;9.40;68.90
59572;DHT22;59406;45.602;11.904;2023-02-12T17:56:14;9.30;69.10
59572;DHT22;59406;45.602;11.904;2023-02-12T17:58:41;9.10;69.40
59572;DHT22;59406;45.602;11.904;2023-02-12T18:01:09;9.00;69.70
59572;DHT22;59406;45.602;11.904;2023-02-12T18:03:35;8.90;69.90
59572;DHT22;59406;45.602;11.904;2023-02-12T18:06:02;9.00;69.50
59572;DHT22;59406;45.602;11.904;2023-02-12T18:08:28;8.70;70.50
59572;DHT22;59406;45.602;11.904;2023-02-12T18:10:54;8.50;70.70
59572;DHT22;59406;45.602;11.904;2023-02-12T18:13:20;8.20;70.40
59572;DHT22;59406;45.602;11.904;2023-02-12T18:15:45;8.40;71.10
59572;DHT22;59406;45.602;11.904;2023-02-12T18:18:11;8.30;70.80
59572;DHT22;59406;45.602;11.904;2023-02-12T18:20:40;8.20;71.00
59572;DHT22;59406;45.602;11.904;2023-02-12T18:23:06;8.00;70.80
59572;DHT22;59406;45.602;11.904;2023-02-12T18:25:34;8.10;71.20
59572;DHT22;59406;45.602;11.904;2023-02-12T18:28:00;8.00;71.40